createdAt,value
2018-06-24T00:00:50.353Z,15.63
2018-06-24T00:01:50.378Z,15.67
2018-06-24T00:02:50.397Z,15.59
2018-06-24T00:03:50.416Z,15.60
2018-06-24T00:04:50.434Z,15.63
2018-06-24T00:05:50.457Z,15.66
2018-06-24T00:06:50.474Z,15.70
2018-06-24T00:07:50.493Z,15.68
2018-06-24T00:08:50.513Z,15.67
2018-06-24T00:09:50.537Z,15.66
2018-06-24T00:10:50.553Z,15.78
2018-06-24T00:11:50.573Z,15.85
2018-06-24T00:12:50.591Z,15.86
2018-06-24T00:13:50.639Z,15.85
2018-06-24T00:14:50.631Z,15.82
2018-06-24T00:15:50.654Z,15.86
2018-06-24T00:16:50.673Z,15.89
2018-06-24T00:17:50.691Z,15.88
2018-06-24T00:18:50.712Z,15.85
2018-06-24T00:19:50.727Z,15.86
2018-06-24T00:20:50.752Z,15.84
2018-06-24T00:21:50.775Z,15.82
2018-06-24T00:22:50.790Z,15.84
2018-06-24T00:23:50.810Z,15.89
2018-06-24T00:24:50.826Z,15.84
2018-06-24T00:25:50.849Z,15.89
2018-06-24T00:26:50.876Z,15.88
2018-06-24T00:27:50.886Z,15.85
2018-06-24T00:28:50.906Z,15.72
2018-06-24T00:29:50.924Z,15.74
2018-06-24T00:30:50.952Z,15.67
2018-06-24T00:31:50.967Z,15.57
2018-06-24T00:32:51.027Z,15.60
2018-06-24T00:33:51.003Z,15.59
2018-06-24T00:34:51.028Z,15.60
2018-06-24T00:35:51.048Z,15.64
2018-06-24T00:36:51.069Z,15.72
2018-06-24T00:37:51.087Z,15.63
2018-06-24T00:38:51.108Z,15.74
2018-06-24T00:39:51.124Z,15.68
2018-06-24T00:40:51.148Z,15.70
2018-06-24T00:41:51.163Z,15.67
2018-06-24T00:42:51.185Z,15.57
2018-06-24T00:43:51.204Z,15.60
2018-06-24T00:44:51.222Z,15.56
2018-06-24T00:45:51.244Z,15.49
2018-06-24T00:46:51.263Z,15.61
2018-06-24T00:47:51.280Z,15.56
2018-06-24T00:48:51.301Z,15.54
2018-06-24T00:49:51.319Z,15.56
2018-06-24T00:50:51.341Z,15.49
2018-06-24T00:51:51.359Z,15.51
2018-06-24T00:52:51.380Z,15.46
2018-06-24T00:53:51.402Z,15.39
2018-06-24T00:54:51.421Z,15.28
2018-06-24T00:55:51.439Z,15.26
2018-06-24T00:56:51.459Z,15.21
2018-06-24T00:57:51.479Z,15.15
2018-06-24T00:58:51.497Z,15.09
2018-06-24T00:59:51.519Z,15.05
2018-06-24T01:00:51.541Z,15.11
2018-06-24T01:01:51.556Z,15.12
2018-06-24T01:02:51.578Z,15.09
2018-06-24T01:03:51.597Z,15.17
2018-06-24T01:04:51.613Z,15.24
2018-06-24T01:05:51.634Z,15.23
2018-06-24T01:06:51.657Z,15.15
2018-06-24T01:07:51.672Z,15.12
2018-06-24T01:08:51.695Z,15.09
2018-06-24T01:09:51.717Z,15.13
2018-06-24T01:10:51.735Z,15.02
2018-06-24T01:11:51.753Z,15.01
2018-06-24T01:12:51.772Z,15.05
2018-06-24T01:13:51.789Z,15.05
2018-06-24T01:14:51.811Z,15.08
2018-06-24T01:15:51.834Z,15.01
2018-06-24T01:16:51.849Z,15.05
2018-06-24T01:17:51.870Z,14.90
2018-06-24T01:18:51.887Z,14.95
2018-06-24T01:19:51.907Z,14.87
2018-06-24T01:20:51.929Z,14.86
2018-06-24T01:21:51.950Z,14.74
2018-06-24T01:22:51.967Z,14.75
2018-06-24T01:23:51.989Z,14.78
2018-06-24T01:24:52.007Z,14.71
2018-06-24T01:25:52.030Z,14.54
2018-06-24T01:26:52.046Z,14.62
2018-06-24T01:27:52.063Z,14.61
2018-06-24T01:28:52.085Z,14.50
2018-06-24T01:29:52.105Z,14.47
2018-06-24T01:30:52.121Z,14.53
2018-06-24T01:31:52.141Z,14.53
2018-06-24T01:32:52.160Z,14.71
2018-06-24T01:33:52.180Z,14.60
2018-06-24T01:34:52.201Z,14.56
2018-06-24T01:35:52.217Z,14.53
2018-06-24T01:36:52.240Z,14.47
2018-06-24T01:37:52.259Z,14.49
2018-06-24T01:38:52.282Z,14.46
2018-06-24T01:39:52.295Z,14.47
2018-06-24T01:40:52.316Z,14.50
2018-06-24T01:41:52.335Z,14.47
2018-06-24T01:42:52.355Z,14.50
2018-06-24T01:43:52.375Z,14.42
2018-06-24T01:44:52.395Z,14.37
2018-06-24T01:45:52.412Z,14.29
2018-06-24T01:46:52.430Z,14.25
2018-06-24T01:47:52.447Z,14.27
2018-06-24T01:48:52.467Z,14.17
2018-06-24T01:49:52.486Z,14.14
2018-06-24T01:50:52.509Z,14.17
2018-06-24T01:51:52.529Z,14.17
2018-06-24T01:52:52.547Z,14.16
2018-06-24T01:53:52.564Z,14.17
2018-06-24T02:23:12.621Z,14.42
2018-06-24T02:24:12.619Z,14.34
2018-06-24T02:26:05.546Z,14.27
2018-06-24T02:27:05.528Z,14.34
2018-06-24T02:28:58.480Z,14.31
2018-06-24T02:29:58.456Z,14.24
2018-06-24T02:31:51.374Z,14.20
2018-06-24T02:32:51.386Z,14.29
2018-06-24T02:34:44.328Z,14.25
2018-06-24T02:35:44.312Z,14.17
2018-06-24T02:37:37.231Z,14.20
2018-06-24T02:38:37.243Z,14.19
2018-06-24T02:40:30.186Z,14.16
2018-06-24T02:41:30.180Z,14.16
2018-06-24T02:43:23.097Z,14.06
2018-06-24T02:44:23.110Z,14.19
2018-06-24T02:46:16.055Z,14.19
2018-06-24T02:47:16.048Z,14.06
2018-06-24T02:49:08.966Z,14.04
2018-06-24T02:50:08.979Z,14.16
2018-06-24T02:52:01.934Z,14.17
2018-06-24T02:53:01.912Z,14.14
2018-06-24T02:54:54.858Z,14.09
2018-06-24T02:55:54.849Z,14.13
2018-06-24T02:57:47.790Z,14.12
2018-06-24T02:58:47.788Z,14.12
2018-06-24T03:00:40.737Z,13.96
2018-06-24T03:01:40.729Z,13.99
2018-06-24T03:03:33.652Z,14.01
2018-06-24T03:04:33.668Z,13.99
2018-06-24T03:06:26.614Z,13.99
2018-06-24T03:07:26.602Z,13.83
2018-06-24T03:09:19.523Z,13.88
2018-06-24T03:10:19.540Z,13.81
2018-06-24T03:12:12.490Z,13.71
2018-06-24T03:13:12.480Z,13.69
2018-06-24T03:15:05.426Z,13.47
2018-06-24T03:16:05.413Z,13.43
2018-06-24T03:17:58.341Z,13.25
2018-06-24T03:18:58.352Z,13.24
2018-06-24T03:20:51.296Z,13.04
2018-06-24T03:21:51.287Z,13.04
2018-06-24T03:22:51.306Z,13.12
2018-06-24T03:23:51.324Z,13.14
2018-06-24T03:24:51.342Z,13.04
2018-06-24T03:25:51.363Z,13.04
2018-06-24T03:26:51.407Z,13.04
2018-06-24T03:27:51.395Z,12.99
2018-06-24T03:28:51.417Z,13.04
2018-06-24T03:29:51.436Z,13.07
2018-06-24T03:30:51.458Z,13.06
2018-06-24T03:31:51.472Z,13.06
2018-06-24T03:32:51.487Z,13.02
2018-06-24T03:33:51.509Z,13.02
2018-06-24T03:34:51.528Z,13.11
2018-06-24T03:35:51.544Z,13.02
2018-06-24T03:36:51.564Z,13.00
2018-06-24T03:37:51.582Z,13.02
2018-06-24T03:38:51.601Z,13.07
2018-06-24T03:39:51.618Z,12.99
2018-06-24T03:40:51.638Z,12.93
2018-06-24T03:41:51.656Z,12.96
2018-06-24T03:42:51.675Z,12.99
2018-06-24T03:43:51.692Z,12.95
2018-06-24T03:44:51.707Z,13.00
2018-06-24T03:45:51.731Z,13.02
2018-06-24T03:46:51.748Z,13.06
2018-06-24T03:47:51.766Z,13.00
2018-06-24T03:48:51.790Z,13.00
2018-06-24T03:49:51.804Z,13.00
2018-06-24T03:50:51.825Z,12.99
2018-06-24T03:51:51.838Z,13.02
2018-06-24T03:52:51.857Z,13.00
2018-06-24T03:53:51.875Z,12.99
2018-06-24T03:54:51.895Z,13.02
2018-06-24T03:55:51.912Z,13.07
2018-06-24T03:56:51.929Z,13.07
2018-06-24T03:57:51.948Z,13.07
2018-06-24T03:58:51.975Z,13.03
2018-06-24T03:59:51.985Z,13.02
2018-06-24T04:00:52.007Z,12.97
2018-06-24T04:01:52.025Z,13.00
2018-06-24T04:02:52.044Z,13.06
2018-06-24T04:03:52.059Z,13.11
2018-06-24T04:04:52.165Z,13.18
2018-06-24T04:05:52.100Z,13.14
2018-06-24T04:06:52.116Z,13.20
2018-06-24T04:07:52.132Z,13.17
2018-06-24T04:08:52.151Z,13.22
2018-06-24T04:09:52.167Z,13.21
2018-06-24T04:10:52.187Z,13.25
2018-06-24T04:11:52.209Z,13.41
2018-06-24T04:12:52.224Z,13.38
2018-06-24T04:13:52.243Z,13.56
2018-06-24T04:14:52.282Z,13.61
2018-06-24T04:15:52.279Z,13.62
2018-06-24T04:16:52.299Z,13.65
2018-06-24T04:17:52.315Z,13.67
2018-06-24T04:18:52.339Z,13.77
2018-06-24T04:19:52.353Z,13.88
2018-06-24T04:20:52.375Z,13.89
2018-06-24T04:21:52.391Z,13.96
2018-06-24T04:22:52.410Z,13.98
2018-06-24T04:23:52.430Z,13.98
2018-06-24T04:24:52.447Z,14.04
2018-06-24T04:25:52.465Z,14.13
2018-06-24T04:26:52.485Z,14.02
2018-06-24T04:27:52.503Z,14.13
2018-06-24T04:28:52.523Z,14.16
2018-06-24T04:29:52.541Z,14.25
2018-06-24T04:30:52.558Z,14.38
2018-06-24T04:31:52.587Z,14.39
2018-06-24T04:32:52.597Z,14.53
2018-06-24T04:33:52.617Z,14.62
2018-06-24T04:34:52.637Z,14.75
2018-06-24T04:35:52.668Z,14.87
2018-06-24T04:36:52.672Z,14.88
2018-06-24T04:37:52.693Z,14.87
2018-06-24T04:38:52.713Z,14.93
2018-06-24T04:39:52.730Z,14.86
2018-06-24T04:40:52.750Z,14.93
2018-06-24T04:41:52.775Z,14.91
2018-06-24T04:42:52.791Z,14.90
2018-06-24T04:43:52.805Z,14.94
2018-06-24T04:44:52.826Z,14.94
2018-06-24T04:45:52.847Z,14.95
2018-06-24T04:46:52.866Z,14.99
2018-06-24T04:47:52.882Z,14.99
2018-06-24T04:48:52.901Z,15.05
2018-06-24T04:49:52.922Z,15.01
2018-06-24T04:50:52.941Z,15.05
2018-06-24T04:51:52.962Z,15.12
2018-06-24T04:52:52.980Z,15.15
2018-06-24T04:53:53.004Z,15.15
2018-06-24T04:54:53.022Z,15.09
2018-06-24T04:55:53.039Z,15.23
2018-06-24T04:56:53.057Z,15.31
2018-06-24T04:57:53.078Z,15.33
2018-06-24T04:58:53.096Z,15.48
2018-06-24T04:59:53.117Z,15.61
2018-06-24T05:00:53.135Z,15.66
2018-06-24T05:01:53.160Z,15.75
2018-06-24T05:02:53.179Z,15.86
2018-06-24T05:03:53.194Z,15.96
2018-06-24T05:04:53.214Z,15.94
2018-06-24T05:05:53.232Z,16.01
2018-06-24T05:06:53.254Z,16.04
2018-06-24T05:07:53.272Z,16.12
2018-06-24T05:08:53.291Z,16.18
2018-06-24T05:09:53.314Z,16.16
2018-06-24T05:10:53.334Z,16.09
2018-06-24T05:11:53.354Z,15.96
2018-06-24T05:12:53.374Z,15.88
2018-06-24T05:13:53.397Z,15.88
2018-06-24T05:14:53.414Z,15.89
2018-06-24T05:15:53.434Z,15.86
2018-06-24T05:16:53.449Z,15.72
2018-06-24T05:17:53.475Z,15.81
2018-06-24T05:18:53.499Z,15.93
2018-06-24T05:19:53.527Z,15.84
2018-06-24T05:20:53.558Z,16.03
2018-06-24T05:21:53.560Z,16.03
2018-06-24T05:22:53.570Z,16.12
2018-06-24T05:23:53.592Z,16.25
2018-06-24T05:24:53.616Z,16.56
2018-06-24T05:25:53.637Z,16.73
2018-06-24T05:26:53.660Z,16.75
2018-06-24T05:27:53.672Z,16.71
2018-06-24T05:28:53.705Z,16.85
2018-06-24T05:29:53.719Z,17.22
2018-06-24T05:30:53.736Z,17.88
2018-06-24T05:31:53.753Z,18.43
2018-06-24T05:32:53.776Z,19.01
2018-06-24T05:33:53.799Z,19.68
2018-06-24T05:34:53.819Z,20.38
2018-06-24T05:35:53.839Z,20.68
2018-06-24T05:36:53.859Z,21.46
2018-06-24T05:37:53.896Z,21.90
2018-06-24T05:38:53.902Z,22.14
2018-06-24T05:39:53.926Z,22.31
2018-06-24T05:40:53.948Z,22.16
2018-06-24T05:41:53.968Z,21.54
2018-06-24T05:42:53.993Z,21.42
2018-06-24T05:43:54.012Z,21.34
2018-06-24T05:44:54.036Z,21.50
2018-06-24T05:45:54.060Z,21.35
2018-06-24T05:46:54.082Z,20.91
2018-06-24T05:47:54.108Z,20.74
2018-06-24T05:48:54.208Z,20.35
2018-06-24T05:49:54.153Z,20.10
2018-06-24T05:50:54.177Z,19.90
2018-06-24T05:51:54.197Z,19.76
2018-06-24T05:52:54.222Z,19.53
2018-06-24T05:53:54.241Z,19.36
2018-06-24T05:54:54.267Z,19.17
2018-06-24T05:55:54.290Z,19.01
2018-06-24T05:56:54.315Z,18.97
2018-06-24T05:57:54.334Z,18.86
2018-06-24T05:58:54.361Z,18.82
2018-06-24T05:59:54.386Z,18.84
2018-06-24T06:00:54.406Z,18.72
2018-06-24T06:01:54.426Z,18.55
2018-06-24T06:02:54.518Z,18.50
2018-06-24T06:03:54.470Z,18.65
2018-06-24T06:04:54.498Z,18.79
2018-06-24T06:05:54.520Z,19.14
2018-06-24T06:06:54.544Z,19.68
2018-06-24T06:07:54.562Z,19.93
2018-06-24T06:08:54.584Z,20.31
2018-06-24T06:09:54.605Z,20.83
2018-06-24T06:10:54.630Z,21.41
2018-06-24T06:11:54.680Z,21.06
2018-06-24T06:12:54.678Z,21.21
2018-06-24T06:13:54.703Z,21.38
2018-06-24T06:14:54.725Z,21.71
2018-06-24T06:15:54.748Z,21.45
2018-06-24T06:16:54.768Z,21.26
2018-06-24T06:17:54.794Z,21.34
2018-06-24T06:18:54.821Z,21.51
2018-06-24T06:19:54.839Z,21.81
2018-06-24T06:20:54.865Z,22.25
2018-06-24T06:21:54.889Z,22.25
2018-06-24T06:22:54.909Z,22.07
2018-06-24T06:23:54.939Z,21.72
2018-06-24T06:24:54.958Z,21.23
2018-06-24T06:25:54.983Z,21.08
2018-06-24T06:26:55.009Z,20.69
2018-06-24T06:27:55.033Z,20.59
2018-06-24T06:28:55.053Z,20.24
2018-06-24T06:29:55.081Z,20.13
2018-06-24T06:30:55.104Z,20.05
2018-06-24T06:31:55.127Z,19.78
2018-06-24T06:32:55.150Z,19.66
2018-06-24T06:33:55.173Z,19.54
2018-06-24T06:34:55.202Z,19.47
2018-06-24T06:35:55.220Z,19.32
2018-06-24T06:36:55.280Z,18.86
2018-06-24T06:37:55.269Z,18.80
2018-06-24T06:38:55.293Z,18.80
2018-06-24T06:39:55.312Z,18.84
2018-06-24T06:40:55.337Z,18.80
2018-06-24T06:41:55.362Z,18.91
2018-06-24T06:42:55.384Z,18.97
2018-06-24T06:43:55.404Z,19.13
2018-06-24T06:44:55.513Z,19.15
2018-06-24T06:45:55.455Z,19.25
2018-06-24T06:46:55.478Z,19.31
2018-06-24T06:47:55.502Z,19.28
2018-06-24T06:48:55.524Z,19.14
2018-06-24T06:49:55.545Z,19.13
2018-06-24T06:50:55.577Z,18.99
2018-06-24T06:51:55.606Z,19.05
2018-06-24T06:52:55.616Z,19.01
2018-06-24T06:53:55.636Z,18.92
2018-06-24T06:54:55.662Z,18.95
2018-06-24T06:55:55.682Z,18.98
2018-06-24T06:56:55.704Z,18.94
2018-06-24T06:57:55.795Z,18.92
2018-06-24T06:58:55.750Z,18.86
2018-06-24T06:59:55.772Z,18.95
2018-06-24T07:00:55.797Z,18.98
2018-06-24T07:01:55.819Z,18.97
2018-06-24T07:02:55.842Z,18.83
2018-06-24T07:03:55.862Z,18.92
2018-06-24T07:04:55.886Z,18.68
2018-06-24T07:05:55.908Z,18.54
2018-06-24T07:06:55.931Z,18.62
2018-06-24T07:07:55.955Z,18.79
2018-06-24T07:08:55.972Z,18.77
2018-06-24T07:09:55.996Z,18.68
2018-06-24T07:10:56.021Z,18.65
2018-06-24T07:11:56.038Z,18.86
2018-06-24T07:12:56.066Z,18.87
2018-06-24T07:13:56.084Z,19.02
2018-06-24T07:14:56.108Z,19.14
2018-06-24T07:15:56.139Z,19.14
2018-06-24T07:16:56.155Z,19.32
2018-06-24T07:17:56.174Z,19.35
2018-06-24T07:18:56.199Z,19.35
2018-06-24T07:19:56.220Z,19.18
2018-06-24T07:20:56.241Z,19.32
2018-06-24T07:21:56.265Z,19.48
2018-06-24T07:22:56.287Z,19.69
2018-06-24T07:23:56.308Z,19.78
2018-06-24T07:24:56.330Z,19.63
2018-06-24T07:25:56.353Z,19.70
2018-06-24T07:26:56.376Z,19.84
2018-06-24T07:27:56.397Z,19.95
2018-06-24T07:28:56.420Z,20.12
2018-06-24T07:29:56.441Z,20.23
2018-06-24T07:30:56.467Z,20.18
2018-06-24T07:31:56.486Z,20.15
2018-06-24T07:32:56.514Z,20.06
2018-06-24T07:33:56.531Z,20.15
2018-06-24T07:34:56.555Z,20.09
2018-06-24T07:35:56.576Z,20.08
2018-06-24T07:36:56.604Z,19.97
2018-06-24T07:37:56.622Z,19.95
2018-06-24T07:38:56.646Z,20.12
2018-06-24T07:39:56.669Z,20.06
2018-06-24T07:40:56.691Z,19.93
2018-06-24T07:41:56.715Z,20.02
2018-06-24T07:42:56.737Z,20.13
2018-06-24T07:43:56.755Z,20.13
2018-06-24T07:44:56.782Z,20.00
2018-06-24T07:45:56.803Z,20.10
2018-06-24T07:46:56.825Z,20.25
2018-06-24T07:47:56.855Z,20.35
2018-06-24T07:48:56.870Z,20.50
2018-06-24T07:49:56.893Z,20.53
2018-06-24T07:50:56.917Z,20.59
2018-06-24T07:51:56.938Z,20.80
2018-06-24T07:52:56.963Z,20.79
2018-06-24T07:53:56.983Z,20.74
2018-06-24T07:54:57.009Z,20.76
2018-06-24T07:55:57.031Z,20.79
2018-06-24T07:56:57.056Z,20.64
2018-06-24T07:57:57.079Z,20.76
2018-06-24T07:58:57.102Z,20.64
2018-06-24T07:59:57.122Z,20.42
2018-06-24T08:00:57.144Z,20.51
2018-06-24T08:01:57.167Z,20.46
2018-06-24T08:02:57.192Z,20.28
2018-06-24T08:03:57.215Z,20.38
2018-06-24T08:04:57.240Z,20.28
2018-06-24T08:05:57.261Z,20.24
2018-06-24T08:06:57.286Z,20.50
2018-06-24T08:07:57.308Z,20.35
2018-06-24T08:08:57.329Z,20.39
2018-06-24T08:09:57.354Z,20.42
2018-06-24T08:10:57.375Z,20.46
2018-06-24T08:11:57.847Z,20.47
2018-06-24T08:12:57.424Z,20.47
2018-06-24T08:13:57.452Z,20.54
2018-06-24T08:14:57.467Z,20.43
2018-06-24T08:15:57.490Z,20.38
2018-06-24T08:16:57.516Z,20.31
2018-06-24T08:17:57.539Z,20.28
2018-06-24T08:18:57.560Z,20.46
2018-06-24T08:19:57.585Z,20.49
2018-06-24T08:20:57.603Z,20.49
2018-06-24T08:21:57.630Z,20.58
2018-06-24T08:22:57.651Z,20.59
2018-06-24T08:23:57.675Z,20.68
2018-06-24T08:24:57.698Z,20.71
2018-06-24T08:25:57.721Z,20.72
2018-06-24T08:26:57.749Z,20.62
2018-06-24T08:27:57.769Z,20.62
2018-06-24T08:28:57.790Z,20.65
2018-06-24T08:29:57.811Z,20.66
2018-06-24T08:30:57.838Z,20.62
2018-06-24T08:31:57.865Z,20.65
2018-06-24T08:32:57.882Z,20.65
2018-06-24T08:33:57.905Z,20.81
2018-06-24T08:34:57.929Z,20.84
2018-06-24T08:35:57.950Z,20.89
2018-06-24T08:36:57.982Z,21.08
2018-06-24T08:37:57.996Z,21.19
2018-06-24T08:38:58.054Z,21.08
2018-06-24T08:39:58.043Z,21.13
2018-06-24T08:40:58.066Z,21.21
2018-06-24T08:41:58.091Z,21.24
2018-06-24T08:42:58.113Z,21.30
2018-06-24T08:43:58.137Z,21.51
2018-06-24T08:44:58.163Z,21.39
2018-06-24T08:45:58.183Z,21.56
2018-06-24T08:46:58.207Z,21.63
2018-06-24T08:47:58.230Z,21.76
2018-06-24T08:48:58.252Z,21.78
2018-06-24T08:49:58.279Z,21.75
2018-06-24T08:50:58.301Z,21.39
2018-06-24T08:51:58.327Z,21.32
2018-06-24T08:52:58.346Z,21.34
2018-06-24T08:53:58.369Z,21.36
2018-06-24T08:54:58.393Z,21.44
2018-06-24T08:55:58.414Z,21.24
2018-06-24T08:56:58.441Z,21.21
2018-06-24T08:57:58.464Z,21.24
2018-06-24T08:58:58.488Z,21.34
2018-06-24T08:59:58.509Z,21.34
2018-06-24T09:00:58.534Z,21.45
2018-06-24T09:01:58.558Z,21.45
2018-06-24T09:02:58.582Z,21.50
2018-06-24T09:03:58.601Z,21.54
2018-06-24T09:04:58.629Z,21.54
2018-06-24T09:05:58.651Z,21.54
2018-06-24T09:06:58.672Z,21.45
2018-06-24T09:07:58.711Z,21.32
2018-06-24T09:08:58.719Z,21.21
2018-06-24T09:09:58.750Z,21.19
2018-06-24T09:10:58.770Z,21.08
2018-06-24T09:11:58.792Z,21.26
2018-06-24T09:12:58.815Z,21.26
2018-06-24T09:13:58.891Z,21.39
2018-06-24T09:14:58.865Z,21.16
2018-06-24T09:15:59.036Z,21.16
2018-06-24T09:16:58.913Z,21.21
2018-06-24T09:17:58.931Z,21.19
2018-06-24T09:18:58.959Z,21.36
2018-06-24T09:19:58.982Z,21.20
2018-06-24T09:20:59.005Z,21.26
2018-06-24T09:21:59.036Z,21.34
2018-06-24T09:22:59.051Z,21.76
2018-06-24T09:23:59.077Z,22.04
2018-06-24T09:24:59.097Z,22.04
2018-06-24T09:25:59.125Z,21.94
2018-06-24T09:26:59.155Z,21.63
2018-06-24T09:27:59.169Z,21.24
2018-06-24T09:28:59.192Z,20.90
2018-06-24T09:29:59.216Z,20.65
2018-06-24T09:30:59.243Z,20.66
2018-06-24T09:31:59.264Z,20.76
2018-06-24T09:32:59.285Z,21.05
2018-06-24T09:33:59.314Z,21.20
2018-06-24T09:34:59.336Z,21.30
2018-06-24T09:35:59.359Z,21.44
2018-06-24T09:36:59.384Z,21.66
2018-06-24T09:37:59.402Z,21.90
2018-06-24T09:38:59.431Z,21.79
2018-06-24T09:39:59.450Z,21.97
2018-06-24T09:40:59.521Z,21.90
2018-06-24T09:41:59.500Z,21.97
2018-06-24T09:42:59.526Z,21.88
2018-06-24T09:43:59.545Z,21.88
2018-06-24T09:44:59.573Z,21.76
2018-06-24T09:45:59.596Z,21.61
2018-06-24T09:46:59.618Z,21.57
2018-06-24T09:47:59.641Z,21.69
2018-06-24T09:48:59.666Z,21.97
2018-06-24T09:49:59.693Z,21.97
2018-06-24T09:50:59.712Z,22.04
2018-06-24T09:51:59.737Z,21.79
2018-06-24T09:52:59.761Z,21.72
2018-06-24T09:53:59.786Z,21.75
2018-06-24T09:54:59.808Z,21.72
2018-06-24T09:55:59.832Z,21.60
2018-06-24T09:56:59.852Z,21.82
2018-06-24T09:57:59.881Z,21.92
2018-06-24T09:58:59.904Z,21.98
2018-06-24T09:59:59.927Z,22.02
2018-06-24T10:00:59.950Z,21.88
2018-06-24T10:01:59.976Z,21.90
2018-06-24T10:03:00.001Z,21.92
2018-06-24T10:04:00.027Z,21.85
2018-06-24T10:05:00.056Z,21.88
2018-06-24T10:06:00.072Z,21.88
2018-06-24T10:07:00.098Z,21.90
2018-06-24T10:08:00.119Z,21.98
2018-06-24T10:09:00.140Z,22.10
2018-06-24T10:10:00.169Z,21.82
2018-06-24T10:11:00.253Z,21.64
2018-06-24T10:12:00.212Z,21.56
2018-06-24T10:13:00.236Z,21.60
2018-06-24T10:14:00.261Z,21.74
2018-06-24T10:15:00.285Z,21.79
2018-06-24T10:16:00.307Z,21.99
2018-06-24T10:17:00.330Z,21.98
2018-06-24T10:18:00.356Z,22.16
2018-06-24T10:19:00.382Z,22.57
2018-06-24T10:20:00.399Z,22.59
2018-06-24T10:21:00.428Z,22.71
2018-06-24T10:22:00.449Z,22.67
2018-06-24T10:23:00.473Z,22.67
2018-06-24T10:24:00.498Z,22.62
2018-06-24T10:25:00.520Z,22.22
2018-06-24T10:26:00.596Z,22.25
2018-06-24T10:27:00.574Z,22.13
2018-06-24T10:28:00.593Z,22.19
2018-06-24T10:29:00.619Z,21.95
2018-06-24T10:30:00.644Z,22.17
2018-06-24T10:31:00.666Z,22.31
2018-06-24T10:32:00.698Z,22.35
2018-06-24T10:33:00.717Z,22.22
2018-06-24T10:34:00.738Z,22.35
2018-06-24T10:35:00.765Z,22.46
2018-06-24T10:36:00.785Z,22.53
2018-06-24T10:37:00.813Z,22.50
2018-06-24T10:38:00.836Z,22.52
2018-06-24T10:39:00.858Z,22.68
2018-06-24T10:40:00.878Z,22.56
2018-06-24T10:41:00.905Z,22.54
2018-06-24T10:42:00.929Z,22.43
2018-06-24T10:43:00.957Z,22.43
2018-06-24T10:44:00.978Z,22.53
2018-06-24T10:45:01.003Z,22.68
2018-06-24T10:46:01.029Z,22.64
2018-06-24T10:47:01.053Z,22.84
2018-06-24T10:48:01.074Z,23.09
2018-06-24T10:49:01.099Z,23.27
2018-06-24T10:50:01.124Z,23.35
2018-06-24T10:51:01.149Z,23.24
2018-06-24T10:52:01.173Z,23.43
2018-06-24T10:53:01.224Z,23.02
2018-06-24T10:54:01.218Z,22.75
2018-06-24T10:55:01.250Z,22.52
2018-06-24T10:56:01.268Z,22.37
2018-06-24T10:57:01.293Z,22.44
2018-06-24T10:58:01.317Z,22.41
2018-06-24T10:59:01.343Z,22.62
2018-06-24T11:00:01.371Z,22.50
2018-06-24T11:01:01.392Z,22.44
2018-06-24T11:02:01.439Z,22.41
2018-06-24T11:03:01.442Z,22.37
2018-06-24T11:04:01.462Z,22.41
2018-06-24T11:05:01.487Z,22.50
2018-06-24T11:06:01.513Z,22.67
2018-06-24T11:07:01.539Z,22.83
2018-06-24T11:08:01.562Z,22.77
2018-06-24T11:09:01.585Z,22.78
2018-06-24T11:10:01.608Z,22.89
2018-06-24T11:11:01.638Z,22.89
2018-06-24T11:12:01.659Z,22.87
2018-06-24T11:13:01.683Z,22.82
2018-06-24T11:14:01.706Z,22.72
2018-06-24T11:15:01.735Z,22.74
2018-06-24T11:16:01.760Z,22.92
2018-06-24T11:17:01.778Z,22.93
2018-06-24T11:18:01.805Z,22.74
2018-06-24T11:19:01.828Z,22.60
2018-06-24T11:20:01.855Z,22.54
2018-06-24T11:21:01.878Z,22.37
2018-06-24T11:22:01.902Z,22.35
2018-06-24T11:23:01.926Z,22.50
2018-06-24T11:24:01.952Z,22.67
2018-06-24T11:25:01.973Z,22.78
2018-06-24T11:26:02.002Z,22.99
2018-06-24T11:27:02.026Z,23.07
2018-06-24T11:28:02.045Z,23.02
2018-06-24T11:29:02.075Z,22.97
2018-06-24T11:30:02.095Z,22.86
2018-06-24T11:31:02.135Z,22.67
2018-06-24T11:32:02.144Z,22.56
2018-06-24T11:33:02.169Z,22.41
2018-06-24T11:34:02.193Z,22.50
2018-06-24T11:35:02.217Z,22.43
2018-06-24T11:36:02.244Z,22.57
2018-06-24T11:37:02.322Z,22.83
2018-06-24T11:38:02.291Z,22.99
2018-06-24T11:39:02.315Z,23.32
2018-06-24T11:40:02.338Z,23.47
2018-06-24T11:41:02.362Z,23.47
2018-06-24T11:42:02.387Z,23.32
2018-06-24T11:43:02.414Z,23.20
2018-06-24T11:44:02.435Z,23.24
2018-06-24T11:45:02.461Z,23.45
2018-06-24T11:46:02.483Z,23.29
2018-06-24T11:47:02.509Z,23.45
2018-06-24T11:48:02.531Z,23.47
2018-06-24T11:49:02.556Z,23.26
2018-06-24T11:50:02.643Z,23.09
2018-06-24T11:51:02.604Z,22.82
2018-06-24T11:52:02.631Z,22.96
2018-06-24T11:53:02.656Z,23.27
2018-06-24T11:54:02.679Z,23.45
2018-06-24T11:55:02.699Z,23.72
2018-06-24T11:56:02.738Z,23.79
2018-06-24T11:57:02.788Z,23.85
2018-06-24T11:58:02.795Z,23.92
2018-06-24T11:59:02.802Z,24.10
2018-06-24T12:00:02.824Z,24.22
2018-06-24T12:01:02.851Z,24.23
2018-06-24T12:02:02.938Z,24.45
2018-06-24T12:03:02.899Z,24.42
2018-06-24T12:04:02.965Z,24.23
2018-06-24T12:05:02.956Z,24.12
2018-06-24T12:06:02.975Z,24.01
2018-06-24T12:07:02.998Z,23.62
2018-06-24T12:08:03.021Z,23.57
2018-06-24T12:09:03.044Z,23.65
2018-06-24T12:10:03.076Z,23.83
2018-06-24T12:11:03.098Z,23.77
2018-06-24T12:12:03.121Z,23.64
2018-06-24T12:13:03.152Z,23.50
2018-06-24T12:14:03.171Z,23.46
2018-06-24T12:15:03.198Z,23.61
2018-06-24T12:16:03.218Z,23.71
2018-06-24T12:17:03.245Z,23.82
2018-06-24T12:18:03.270Z,23.75
2018-06-24T12:19:03.291Z,23.55
2018-06-24T12:20:03.320Z,23.19
2018-06-24T12:21:03.345Z,23.32
2018-06-24T12:22:03.372Z,23.07
2018-06-24T12:23:03.394Z,22.86
2018-06-24T12:24:03.418Z,22.78
2018-06-24T12:25:03.440Z,22.87
2018-06-24T12:26:03.466Z,23.02
2018-06-24T12:27:03.488Z,23.23
2018-06-24T12:28:03.515Z,23.32
2018-06-24T12:29:03.540Z,23.26
2018-06-24T12:30:03.576Z,22.99
2018-06-24T12:31:03.591Z,23.07
2018-06-24T12:32:03.610Z,22.84
2018-06-24T12:33:03.635Z,22.93
2018-06-24T12:34:03.662Z,22.96
2018-06-24T12:35:03.688Z,23.08
2018-06-24T12:36:03.710Z,23.14
2018-06-24T12:37:03.737Z,23.23
2018-06-24T12:38:03.764Z,23.12
2018-06-24T12:39:03.786Z,23.14
2018-06-24T12:40:03.810Z,23.11
2018-06-24T12:41:03.838Z,23.12
2018-06-24T12:42:03.863Z,23.22
2018-06-24T12:43:03.930Z,23.32
2018-06-24T12:44:03.912Z,23.31
2018-06-24T12:45:03.931Z,23.60
2018-06-24T12:46:03.956Z,23.61
2018-06-24T12:47:03.984Z,23.57
2018-06-24T12:48:04.001Z,23.43
2018-06-24T12:49:04.029Z,23.43
2018-06-24T12:50:04.055Z,23.57
2018-06-24T12:51:04.078Z,23.57
2018-06-24T12:52:04.103Z,23.45
2018-06-24T12:53:04.128Z,23.32
2018-06-24T12:54:04.151Z,23.43
2018-06-24T12:55:04.174Z,23.31
2018-06-24T12:56:04.206Z,23.32
2018-06-24T12:57:04.225Z,23.12
2018-06-24T12:58:04.251Z,22.99
2018-06-24T12:59:04.474Z,22.87
2018-06-24T13:00:04.800Z,22.74
2018-06-24T13:01:04.321Z,22.74
2018-06-24T13:02:04.361Z,22.69
2018-06-24T13:03:04.370Z,22.68
2018-06-24T13:04:04.393Z,22.74
2018-06-24T13:05:04.419Z,22.60
2018-06-24T13:06:04.445Z,22.68
2018-06-24T13:07:04.473Z,22.71
2018-06-24T13:08:04.491Z,22.90
2018-06-24T13:09:04.518Z,22.97
2018-06-24T13:10:04.542Z,23.19
2018-06-24T13:11:04.564Z,23.24
2018-06-24T13:12:04.588Z,23.27
2018-06-24T13:13:04.616Z,23.23
2018-06-24T13:14:04.658Z,23.39
2018-06-24T13:15:04.663Z,23.43
2018-06-24T13:16:04.683Z,23.64
2018-06-24T13:17:04.710Z,23.71
2018-06-24T13:18:04.733Z,23.92
2018-06-24T13:19:04.758Z,24.01
2018-06-24T13:20:04.783Z,23.92
2018-06-24T13:21:04.808Z,23.79
2018-06-24T13:22:04.832Z,23.42
2018-06-24T13:23:04.856Z,23.43
2018-06-24T13:24:04.877Z,23.40
2018-06-24T13:25:04.903Z,23.45
2018-06-24T13:26:04.929Z,23.47
2018-06-24T13:27:04.954Z,23.61
2018-06-24T13:28:04.976Z,23.72
2018-06-24T13:29:05.004Z,23.83
2018-06-24T13:30:05.029Z,23.86
2018-06-24T13:31:05.054Z,23.94
2018-06-24T13:32:05.139Z,23.97
2018-06-24T13:33:05.100Z,24.00
2018-06-24T13:34:05.140Z,23.94
2018-06-24T13:35:05.149Z,23.95
2018-06-24T13:36:05.172Z,23.90
2018-06-24T13:37:05.200Z,23.85
2018-06-24T13:38:05.221Z,23.87
2018-06-24T13:39:05.248Z,23.86